FI domains by registrar

See what kind of domains companies have registered via a specific registrar. Data does not contain domains registered by individuals. Query returns at most 100 latest domains. Unfortunately company name has to be exact match for Traficom to return results. Source: Traficom OData API.

Enter a registrar name

Or select from examples:

Companies tend to buy domains as soon as they know the name of a project, so do not expect new domains to load a website in the upcoming weeks after GrantDate. It can take months for a website to be planned, designed, and built.

Name GrantDate LastValidityDate Holder OrganizationId Address PostalCode PostalArea Country AssociationType Registrar NameServer1 NameServer2
kumannbrake.fi 2026-05-07 18:51 2027-05-07 18:51 AitioTalo oy 2667313-1 Notkoniityntie 4 02820 Espoo FI Company Zoner Oy zoner.g1-dns.com zoner.g1-dns.one
betfin.fi 2026-05-07 17:48 2027-05-07 17:48 SisuPalvelut 3554198-2 Kaivokselantie 5 H 47 01610 Vantaa FI Company Zoner Oy zoner.g1-dns.com zoner.g1-dns.one
scandinavianrelief.fi 2026-05-07 16:48 2027-05-07 16:48 SUPER PEAK OY 3425980-3 Lummetie 13 c 01300 VANTAA FI Company Zoner Oy zoner.g1-dns.com zoner.g1-dns.one
ilonlahdery.fi 2026-05-07 16:30 2027-05-07 16:30 Ilonlaehde ry 3530713-3 Kesaeniementie 3 48300 Kotka FI Company Zoner Oy zoner.g1-dns.com zoner.g1-dns.one
aaltoflow.fi 2026-05-07 15:18 2027-05-07 15:18 AaltoFlow Oy 3622499-7 Itaeinen Rantatie 26a as 3 02230 Espoo FI Company Zoner Oy ns1.zoner.fi ns2.zoner.fi
ketunleipapuu.fi 2026-05-07 15:05 2027-05-07 15:05 Taideterapeutti Anne Karonen 2378187-4 Hallituskatu 19 13100 Haemeenlinna FI Company Zoner Oy zoner.g1-dns.com zoner.g1-dns.one
fnbfinland.fi 2026-05-07 15:05 2027-05-07 15:05 FNB FINLAND 2961731-1 majurinkuja 3A10 02600 respoo FI Company Zoner Oy ns1.zoner.fi ns2.zoner.fi
healingherd.fi 2026-05-07 14:13 2027-05-07 14:13 Heli Maehoenen 2628254-4 Linnankatu 10 90100 Oulu FI Company Zoner Oy zoner.g1-dns.com zoner.g1-dns.one
ahtarinzooresort.fi 2026-05-07 13:56 2027-05-07 13:56 Aehtaerin Zoo Resort Oy 2645036-8 Ostolantie 17 63700 Aehtaeri FI Company Zoner Oy zoner.g1-dns.com zoner.g1-dns.one
nordiclinetech.fi 2026-05-07 13:27 2027-05-07 13:27 Nordicline Tech 3594665-6 Visamaeki 3A4 02130 Espoo FI Company Zoner Oy zoner.g1-dns.com zoner.g1-dns.one
jääkiekkoammattilainen.fi 2026-05-07 13:18 2027-05-07 13:18 Suomen Telelaskutus Oy 2541314-3 Kumpulantie 5 00520 HELSINKI FI Company Zoner Oy zoner.g1-dns.com zoner.g1-dns.one
lemonier.fi 2026-05-07 12:36 2027-05-07 12:36 Beverage Partners Finland Oy 1592219-8 Vilhonvuorenkatu 11 D 00500 HELSINKI FI Company Zoner Oy zoner.g1-dns.com zoner.g1-dns.one
kotivara365.fi 2026-05-07 12:13 2027-05-07 12:13 Luoxi Oy 3442121-7 Linnankatu 21 20100 Turku FI Company Zoner Oy ns1.zoner.fi ns2.zoner.fi
iikkakantola.fi 2026-05-07 10:53 2027-05-07 10:53 Tmi Kantola Consulting 1886241-8 Kitkantie 4 L 6 93600 Kuusamo FI Company Zoner Oy zoner.g1-dns.com zoner.g1-dns.one
ankkurimetodi.fi 2026-05-07 10:11 2027-05-07 10:11 Tmi Tia Liljestroem 3617599-6 Satamatie 39 A 77 90520 Oulu FI Company Zoner Oy zoner.g1-dns.com zoner.g1-dns.one
jaakiekkoammattilainen.fi 2026-05-07 09:13 2027-05-07 09:13 Suomen Telelaskutus Oy 2541314-3 Kumpulantie 5 00520 HELSINKI FI Company Zoner Oy zoner.g1-dns.com zoner.g1-dns.one
athenasuits.fi 2026-05-07 09:08 2027-05-07 09:08 Athena Suits AB 3555222-7 oesteraendsvaegen 9 65930 Soedra Vallgrund FI Company Zoner Oy zoner.g1-dns.com zoner.g1-dns.one
firstlightadvisory.fi 2026-05-07 08:05 2027-05-07 08:05 FirstLight Vim Oy 2388482-2 Vehkatie 55 04400 Jaervenpaeae FI Company Zoner Oy zoner.g1-dns.com zoner.g1-dns.one
fuselage.fi 2026-05-07 07:58 2027-05-07 07:58 Lauri Consulting 3345647-7 Jaalaranta 8 00180 Helsinki FI Company Zoner Oy zoner.g1-dns.com zoner.g1-dns.one
firstlight.fi 2026-05-07 07:45 2027-05-07 07:45 FirstLight Vim Oy 2388482-2 Vehkatie 55 04400 Jaervenpaeae FI Company Zoner Oy zoner.g1-dns.com zoner.g1-dns.one
festens.fi 2026-05-07 07:36 2027-05-07 07:36 Somecity 2647783-5 Aapiskuja 1 37800 Akaa FI Company Zoner Oy zoner.g1-dns.com zoner.g1-dns.one
hipianhehku.fi 2026-05-07 07:24 2027-05-07 07:24 Hipiaen Hehku 3468893-1 Mertakaari 10 70800 Kuopio FI Company Zoner Oy zoner.g1-dns.com zoner.g1-dns.one
warda.fi 2026-05-07 07:24 2027-05-07 07:24 Warda Oy 3622798-7 Kala-Matti 3 C 81 02230 ESPOO FI Company Zoner Oy zoner.g1-dns.com zoner.g1-dns.one
lentokentanautokatsastus.fi 2026-05-07 07:10 2027-05-07 07:10 Lentokentaen Autokatsastus Oy 3617754-5 Kiitoradankuja 6 01530 Vantaa FI Company Zoner Oy michelle.ns.cloudflare.com patrick.ns.cloudflare.com
torneasuperior.fi 2026-05-07 06:59 2027-05-07 06:59 Ylitornion kunta 0210826-9 Alkkulanraitti 55 95600 Ylitornio FI Company Zoner Oy zoner.g1-dns.com zoner.g1-dns.one
kotipalvelusalvia.fi 2026-05-07 06:38 2027-05-07 06:38 Salviana 3600931-4 Taimistontie 4aA1 00380 Helsinki FI Company Zoner Oy zoner.g1-dns.com zoner.g1-dns.one
ughurhelsinkitaksi.fi 2026-05-07 06:20 2027-05-07 06:20 Ughur Helsinki taxi oy 3618921-2 PARMAAJANTIE 4 C 30 00750 HELSINKI FI Company Zoner Oy zoner.g1-dns.com zoner.g1-dns.one
subwaykaleva.fi 2026-05-07 05:44 2027-05-07 05:44 Subventure Oy 2579949-6 Teerentie 26 33540 Tampere FI Company Zoner Oy zoner.g1-dns.com zoner.g1-dns.one
subwaysuomi.fi 2026-05-07 05:44 2027-05-07 05:44 Subventure Oy 2579949-6 Teerentie 26 33540 Tampere FI Company Zoner Oy zoner.g1-dns.com zoner.g1-dns.one
aptolux.fi 2026-05-07 05:41 2027-05-07 05:41 Aptolux Oy 3408595-4 Maakirjantie 12L 02250 Espoo FI Company Zoner Oy zoner.g1-dns.com zoner.g1-dns.one
asoypicea.fi 2026-05-07 05:38 2027-05-07 05:38 Hirvensalon Talonrakennus Oy 2433349-1 PL 18358 00062 LASKUTUS FI Company Zoner Oy zoner.g1-dns.com zoner.g1-dns.one
asoypinus.fi 2026-05-07 05:38 2027-05-07 05:38 Hirvensalon Talonrakennus Oy 2433349-1 PL 18358 00062 LASKUTUS FI Company Zoner Oy zoner.g1-dns.com zoner.g1-dns.one
asoybetula.fi 2026-05-07 05:38 2027-05-07 05:38 Hirvensalon Talonrakennus Oy 2433349-1 PL 18358 00062 LASKUTUS FI Company Zoner Oy zoner.g1-dns.com zoner.g1-dns.one
betsuomi.fi 2026-05-07 05:30 2027-05-07 05:30 SisuPalvelut 3554198-2 Kaivokselantie 5 H 47 01610 Vantaa FI Company Zoner Oy zoner.g1-dns.com zoner.g1-dns.one
ihanaaleijonatihanaa.fi 2026-05-07 04:28 2027-05-07 04:28 Studio Mikko Rasila Oy 3150064-9 Uudenmaankatu 36 C 15 00120 Helsinki FI Company Zoner Oy zoner.g1-dns.com zoner.g1-dns.one
dengliderin.fi 2026-05-07 04:26 2027-05-07 04:26 Studio Mikko Rasila Oy 3150064-9 Uudenmaankatu 36 C 15 00120 Helsinki FI Company Zoner Oy zoner.g1-dns.com zoner.g1-dns.one
vahtinen.fi 2026-05-07 04:02 2027-05-07 04:02 Buukki Oy 3108254-7 Kurikkahaantie 10 A3 90440 Kempele FI Company Zoner Oy zoner.g1-dns.com zoner.g1-dns.one
kinetic-capital.fi 2026-05-06 19:49 2027-05-06 19:49 Kinetic Capital Oy 3621434-2 Hiomotie 44 00380 Helsinki FI Company Zoner Oy zoner.g1-dns.com zoner.g1-dns.one
asiakkuudet.fi 2026-05-06 18:42 2027-05-06 18:42 D&S Consulting Oy 3534435-6 Kalasatamankatu 9 A 242 00580 Helsinki FI Company Zoner Oy zoner.g1-dns.com zoner.g1-dns.one
harmansahkopalvelu.fi 2026-05-06 17:42 2027-05-06 17:42 Haermaen Saehkoepalvelu Oy 3610522-6 Maennistoentie 4 F49 04200 Kerava FI Company Zoner Oy ns1.wp.one ns2.wp.one
wbdesingsms.fi 2026-05-06 15:08 2027-05-06 15:08 Alho Joonatan Henrik 3505441-2 Tanssimaeenkatu 9 B 25240 Lahti FI Company Zoner Oy zoner.g1-dns.com zoner.g1-dns.one
sampokettunen.fi 2026-05-06 14:45 2027-05-06 14:45 Tmi Sampo Kettunen 3222400-9 Kuninkaansaarentie 6 B5 60560 Seinaejoki FI Company Zoner Oy zoner.g1-dns.com zoner.g1-dns.one
elainlaakarikouvola.fi 2026-05-06 13:31 2027-05-06 13:31 ReDream Oy 2811889-5 Paeivaerinteenkatu 5 D 22 15800 Lahti FI Company Zoner Oy zoner.g1-dns.com zoner.g1-dns.one
rnmedia.fi 2026-05-06 12:52 2027-05-06 12:52 RN Media 3481521-6 Aurlahdenkatu 2A 08100 Lohja FI Company Zoner Oy zoner.g1-dns.com zoner.g1-dns.one
lakeimmel.fi 2026-05-06 12:14 2027-05-06 12:14 SJV Invest Oy 3101883-6 Lundinkatu 14 b 06100 Porvoo FI Company Zoner Oy ns1.zoner.fi ns2.zoner.fi
hpuro.fi 2026-05-06 12:08 2027-05-06 12:08 tmi miikka haukipuro 3311376-5 Paiturintie 4 90440 Kempele FI Company Zoner Oy zoner.g1-dns.com zoner.g1-dns.one
fclihashuolto.fi 2026-05-06 11:25 2027-05-06 11:25 FC Lihashuolto 3361208-9 Vanhan-Sepaentie 4 b 15 03100 Nummela FI Company Zoner Oy zoner.g1-dns.com zoner.g1-dns.one
tacifoundation.fi 2026-05-06 10:43 2027-05-06 10:43 Takko Advisory Oy 3434119-6 Meritullinkatu 6 A 4 00170 Helsinki FI Company Zoner Oy zoner.g1-dns.com zoner.g1-dns.one
kotivarapalveluna.fi 2026-05-06 10:28 2027-05-06 10:28 Vilma Karhu-Jopasin 3184417-7 Ruokomaeenkatu 11 E 60 33840 Tampere FI Company Zoner Oy zoner.g1-dns.com zoner.g1-dns.one
kesaihottuma.fi 2026-05-06 10:07 2027-05-06 10:07 Tmi Wusillus 2048615-9 Katinkalliontie 59 12310 Ryttylä FI Company Zoner Oy zoner.g1-dns.com zoner.g1-dns.one
pohjoinenliike.fi 2026-05-06 09:20 2027-05-06 09:20 Pohjoinen liike ry 2562687-8 PL 16 00601 Helsinki FI Company Zoner Oy zoner.g1-dns.com zoner.g1-dns.one
supy.fi 2026-05-06 08:35 2027-05-06 08:35 Suomen urheilupsykologinen yhdistys ry 1454003-2 Sibeliuksenkatu 23 C 25 04400 jaervenpaeae FI Company Zoner Oy zoner.g1-dns.com zoner.g1-dns.one
nh-metsäpalvelukoillismaa.fi 2026-05-06 08:19 2027-05-06 08:19 NH-metsaepalvelu koillismaa 1749435-0 Hirsipolku 1 A6 93400 Taivalkoski FI Company Zoner Oy zoner.g1-dns.com zoner.g1-dns.one
feellapland.fi 2026-05-06 07:56 2027-05-06 07:56 Feel Lapland Oy 3619997-1 Ylimaantie 2 96500 Rovaniemi FI Company Zoner Oy zoner.g1-dns.com zoner.g1-dns.one
jontero.fi 2026-05-06 06:54 2027-05-06 06:54 Jontero Oy 3520179-3 Hiekkamaeentie 7 15680 Lahti FI Company Zoner Oy zoner.g1-dns.com zoner.g1-dns.one
nitoragency.fi 2026-05-06 06:24 2027-05-06 06:24 Janicol Oy 2482321-2 Vesalantie 9 33960 PIRKKALA FI Company Zoner Oy ns1.wp.one ns2.wp.one
digilaskenta.fi 2026-05-06 05:48 2027-05-06 05:48 Digi Laskenta Oy 3246064-2 Mellonkatu 3 55100 Imatra FI Company Zoner Oy ns1.zoner.fi ns2.zoner.fi
sisaanosto.fi 2026-05-06 04:03 2027-05-06 04:03 GLOBALTECH GROUP OY 2954695-5 Itaelahdenkatu 20 00210 HELSINKI FI Company Zoner Oy ns1.zoner.fi ns2.zoner.fi
carepluskotifysio.fi 2026-05-05 20:16 2027-05-05 20:16 care plus fysioterapoia & hyvinvointipalvelut 1882245-9 Kotkansiivenkatu 7 c 15 33720 tampere FI Company Zoner Oy zoner.g1-dns.com zoner.g1-dns.one
psykoterapeuttininaginstrom.fi 2026-05-05 19:30 2027-05-05 19:30 Nina Ginstroem 2274263-8 Kunnallissairaalantie 63 as 2 20810 Turku FI Company Zoner Oy zoner.g1-dns.com zoner.g1-dns.one
aklaskenta.fi 2026-05-05 18:28 2027-05-05 18:28 AK Laskenta Oy 3436285-1 Pajamaeentie 3B 24 00360 Helsinki FI Company Zoner Oy zoner.g1-dns.com zoner.g1-dns.one
jiggiskirppis.fi 2026-05-05 16:04 2027-05-05 16:04 Koto Kierraetyskeskus Oy 3430959-1 Laakeritie 9 90620 Oulu FI Company Zoner Oy zoner.g1-dns.com zoner.g1-dns.one
2zdesign.fi 2026-05-05 15:18 2027-05-05 15:18 2Z design Oy 3616146-3 Verkapiha 1 as5 20100 Turku FI Company Zoner Oy zoner.g1-dns.com zoner.g1-dns.one
konego.fi 2026-05-05 14:25 2027-05-05 14:25 koneGO 3619942-9 Collininkatu 1 B11 60200 Seinaejoki FI Company Zoner Oy zoner.g1-dns.com zoner.g1-dns.one
kaakkois-suomenkiertotalous.fi 2026-05-05 14:16 2027-05-05 14:16 Kaakkois-Suomen kiertotalous Oy 3520731-9 Seponkatu 5 53300 Lappeenranta FI Company Zoner Oy zoner.g1-dns.com zoner.g1-dns.one
petosenparturikampaamo.fi 2026-05-05 12:53 2027-05-05 12:53 Petosen Parturi Ja Kampaamo 2393883-5 Pyoeroenkaari 8 70820 Kuopio FI Company Zoner Oy ns1.zoner.fi ns2.zoner.fi
ladocottonfinland.fi 2026-05-05 12:14 2027-05-05 12:14 Sugarhaven Cosmetics Oy 3579712-8 Laivanvarustajankatu 8 A 27 00140 Helsinki FI Company Zoner Oy zoner.g1-dns.com zoner.g1-dns.one
korpitalkkari.fi 2026-05-05 11:39 2027-05-05 11:39 Korpikosken moekkitalkkari Oy 2861366-9 Vanhamaeentie 162 50770 Korpikoski FI Company Zoner Oy zoner.g1-dns.com zoner.g1-dns.one
hannavarjonen.fi 2026-05-05 11:29 2027-05-05 11:29 Toiminimi Hanna Hiltunen 2759457-4 c/o Hanna Varjonen Tehtaantie 4 B 10 05400 JOKELA FI Company Zoner Oy zoner.g1-dns.com zoner.g1-dns.one
liidibotti.fi 2026-05-05 10:44 2027-05-05 10:44 WebFin Oy 3391311-3 Koeydenpunojankatu 8 I 183 00180 Helsinki FI Company Zoner Oy zoner.g1-dns.com zoner.g1-dns.one
rakennusapujukota.fi 2026-05-05 09:40 2027-05-05 09:40 Rakennusapu Jukota 3554975-7 Viertotie 1 96800 Rovaniemi FI Company Zoner Oy zoner.g1-dns.com zoner.g1-dns.one
uudenmaankala.fi 2026-05-05 09:29 2027-05-05 09:29 Uudenmaan Kala Oy 3133638-3 Kaeaermekuusentie 1 04600 Maentsaelae FI Company Zoner Oy zoner.g1-dns.com zoner.g1-dns.one
tilatarve.fi 2026-05-05 09:16 2027-05-05 09:16 Sivucon Oy 2838089-3 Rajapolku 2 33880 Lempaeaelae FI Company Zoner Oy zoner.g1-dns.com zoner.g1-dns.one
lexima.fi 2026-05-05 08:30 2027-05-05 08:30 Mesensei Oy 2783802-2 Otakaari 5 02150 Espoo FI Company Zoner Oy zoner.g1-dns.com zoner.g1-dns.one
vasira.fi 2026-05-05 08:29 2027-05-05 08:29 Vasira Oy 3172420-4 Kokkohongantie 9f 02340 Espoo FI Company Zoner Oy zoner.g1-dns.com zoner.g1-dns.one
mrmichelangelo.fi 2026-05-05 07:54 2027-05-05 07:54 Ezer Capital Oy 3140778-6 Mariankatu 14 E 33 00170 Helsinki FI Company Zoner Oy ns10.wixdns.net ns11.wixdns.net
nightfish.fi 2026-05-05 07:24 2027-05-05 07:24 Puruveden Savukala Oy 0819200-0 Poroniementie 2 59800 KESAeLAHTI FI Company Zoner Oy zoner.g1-dns.com zoner.g1-dns.one
evfix.fi 2026-05-05 07:21 2027-05-05 07:21 Janfix Oy 3270928-4 Sikoperaentie 2 85500 Nivala FI Company Zoner Oy zoner.g1-dns.com zoner.g1-dns.one
rakennusheinola.fi 2026-05-05 07:17 2027-05-05 07:17 Joona Jouhten 3612541-1 Ikikuusentie 10 90240 Oulu FI Company Zoner Oy zoner.g1-dns.com zoner.g1-dns.one
subwayjoensuu.fi 2026-05-05 06:59 2027-05-05 06:59 Sub Food Joensuu Oy 2174337-2 Kauppakatu 25 C 80100 Joensuu FI Company Zoner Oy zoner.g1-dns.com zoner.g1-dns.one
eversolo.fi 2026-05-05 06:52 2027-05-05 06:52 Extreme AV Oy 1092740-8 Kunnaankuja 11b 01200 Vantaa FI Company Zoner Oy zoner.g1-dns.com zoner.g1-dns.one
katjatervo.fi 2026-05-05 06:48 2027-05-05 06:48 Katja Tervo 2276258-3 Opintie 2 05400 JOKELA FI Company Zoner Oy ns1.zoner.fi ns2.zoner.fi
pakuhesa.fi 2026-05-05 06:36 2027-05-05 06:36 PVK Kuljetus Oy 2932089-2 Paeivoelaentie 72 e 9 00730 Helsinki FI Company Zoner Oy zoner.g1-dns.com zoner.g1-dns.one
sjpproperty.fi 2026-05-05 05:42 2027-05-05 05:42 SJP Property Oy 3614581-8 Yrttimaantie 33 B 5 00730 Helsinki FI Company Zoner Oy ns1.zoner.fi ns2.zoner.fi
rklleppanen.fi 2026-05-05 05:19 2027-05-05 05:19 WebFin Oy 3391311-3 Koeydenpunojankatu 8 I 183 00180 Helsinki FI Company Zoner Oy ns1.zoner.fi ns2.zoner.fi
neuromood.fi 2026-05-04 16:54 2027-05-04 16:54 Neuropsykiatrinen valmennus NeuroMood 3611813-1 Saniaiskatu 3b3 15160 Lahti FI Company Zoner Oy ns1.zoner.fi ns2.zoner.fi
salmenord.fi 2026-05-04 15:32 2027-05-04 15:32 Salmenord Oy 3455392-2 Joupinmaeenrinne 3 B32 02760 Espoo FI Company Zoner Oy ns1.zoner.fi ns2.zoner.fi
designide.fi 2026-05-04 14:55 2027-05-04 14:55 Design Ide 1589431-8 Simolanrinne 6 01840 Klaukkala FI Company Zoner Oy zoner.g1-dns.com zoner.g1-dns.one
subwayfinland.fi 2026-05-04 12:12 2027-05-04 12:12 SubHouse Oy 2157876-8 Kaivokatu 5 B 53100 Lappeenranta FI Company Zoner Oy zoner.g1-dns.com zoner.g1-dns.one
workdays.fi 2026-05-04 11:55 2027-05-04 11:55 Kuudi Oy 0825486-5 Usvapolku 2 04410 JAeRVENPAeAe FI Company Zoner Oy zoner.g1-dns.com zoner.g1-dns.one
hapro.fi 2026-05-04 11:28 2027-05-04 11:28 Hapek Oy 3452276-3 Taehtaeaejaentie 24 90540 Oulu FI Company Zoner Oy zoner.g1-dns.com zoner.g1-dns.one
saunalauttahoyry.fi 2026-05-04 10:49 2027-05-04 10:49 Saunalautta Hoeyry Oy 3550720-7 Parraspolku 5 15160 Lahti FI Company Zoner Oy ns1.ifastnet4.org ns2.ifastnet4.org
ganbatte.fi 2026-05-04 10:25 2027-05-04 10:25 Ganbatte Oy 3614373-2 Minna Canthin katu 12 B 3 70100 Kuopio FI Company Zoner Oy zoner.g1-dns.com zoner.g1-dns.one
irjalankellari.fi 2026-05-04 10:20 2027-05-04 10:20 Janka Catering Oy 0722541-3 Ankkarinraitti 2 33560 TAMPERE FI Company Zoner Oy zoner.g1-dns.com zoner.g1-dns.one
hbraudoitus.fi 2026-05-04 10:19 2027-05-04 10:19 Fuusiomedia Oy 3358012-8 Myllymaeenkatu 7 06100 Porvoo FI Company Zoner Oy ns1.zoner.fi ns2.zoner.fi
automiq.fi 2026-05-04 09:56 2027-05-04 09:56 KW Catering & Consulting Oy 2521859-1 Verkatehtaankatu 8 20100 TURKU FI Company Zoner Oy zoner.g1-dns.com zoner.g1-dns.one
sahkoasennuskerava.fi 2026-05-04 09:06 2027-05-04 09:06 Saehkoepalvelu Raittila Oy 3405186-9 Pehtorinkatu 15 04200 Kerava FI Company Zoner Oy ns1.zoner.fi ns2.zoner.fi
virbeing.fi 2026-05-04 09:04 2027-05-04 09:04 VirBeing 3596732-6 Laulurastaantie 7 36220 Kangasala FI Company Zoner Oy zoner.g1-dns.com zoner.g1-dns.one
cvkuntoon.fi 2026-05-04 08:38 2027-05-04 08:38 AJK Media Oy 2724840-1 Orvokkitie 14A 15610 Lahti FI Company Zoner Oy zoner.g1-dns.com zoner.g1-dns.one
pst-moduulirakenne.fi 2026-05-04 08:11 2027-05-04 08:11 PST-Moduulirakenne Oy 3616713-6 Radantaus 15 45910 Voikkaa FI Company Zoner Oy ns1.zoner.fi ns2.zoner.fi

See also:


« all tools by Kenda

Please support me to create free-to-use tools and open source plugins. Thank you!